Time;durP1;ratioP1;P1;durP2;ratioP2;P2;SDS_P1;SDS_P2;PMS_P1;PMS_P2;Temp;Humidity;BMP_temperature;BMP_pressure;BME280_temperature;BME280_humidity;BME280_pressure;Samples;Min_cycle;Max_cycle;Signal;HPM_P1;HPM_P2
2022/09/30 00:01:45;;;;;;;;;11.33;9.67;;;25.89;100449.16;;;;117054;1194;25262;-60
2022/09/30 00:04:17;;;;;;;;;9.67;8.33;;;25.89;100447.98;;;;117024;1194;25290;-59
2022/09/30 00:06:46;;;;;;;;;9.50;9.00;;;25.88;100451.38;;;;117065;1194;25209;-59
2022/09/30 00:09:15;;;;;;;;;10.00;8.67;;;25.87;100453.90;;;;117068;1194;25029;-60
2022/09/30 00:11:45;;;;;;;;;9.67;9.00;;;25.85;100457.50;;;;117027;1194;24932;-59
2022/09/30 00:14:19;;;;;;;;;11.00;9.00;;;25.88;100460.10;;;;116960;1194;25363;-59
2022/09/30 00:16:48;;;;;;;;;11.33;8.67;;;25.87;100462.36;;;;117029;1193;25249;-59
2022/09/30 00:19:16;;;;;;;;;13.25;9.00;;;25.86;100466.20;;;;117066;1194;25575;-60
2022/09/30 00:21:45;;;;;;;;;9.33;7.67;;;25.86;100476.17;;;;117073;1193;25591;-60
2022/09/30 00:24:13;;;;;;;;;8.33;6.33;;;25.84;100482.06;;;;116998;1195;25503;-60
2022/09/30 00:26:42;;;;;;;;;12.67;10.67;;;25.83;100482.23;;;;117062;1193;25055;-65
2022/09/30 00:29:10;;;;;;;;;8.25;7.00;;;25.82;100484.15;;;;117073;1192;25080;-60
2022/09/30 00:31:39;;;;;;;;;12.67;10.33;;;25.82;100484.31;;;;117024;1194;25319;-60
2022/09/30 00:34:10;;;;;;;;;11.00;8.00;;;25.83;100485.86;;;;117005;1193;25072;-60
2022/09/30 00:36:48;;;;;;;;;11.33;9.00;;;25.81;100496.77;;;;117030;1194;24678;-61
2022/09/30 00:39:21;;;;;;;;;7.33;6.00;;;25.83;100500.75;;;;117045;1192;25229;-60
2022/09/30 00:41:54;;;;;;;;;12.25;8.50;;;25.82;100501.55;;;;117046;1193;25620;-60
2022/09/30 00:44:54;;;;;;;;;10.00;8.25;;;25.83;100498.00;;;;117055;1193;25068;-64
2022/09/30 00:47:32;;;;;;;;;8.50;8.50;;;25.84;100497.13;;;;117020;1193;24948;-66
2022/09/30 00:50:09;;;;;;;;;12.25;8.00;;;25.82;100499.52;;;;117030;1194;25465;-61
2022/09/30 00:52:38;;;;;;;;;17.00;10.25;;;25.83;100503.64;;;;117016;1194;24895;-61
2022/09/30 00:55:09;;;;;;;;;10.00;7.50;;;25.84;100506.13;;;;117070;1194;25324;-61
2022/09/30 00:57:39;;;;;;;;;10.00;9.75;;;25.83;100502.29;;;;117027;1194;25190;-60
2022/09/30 01:00:08;;;;;;;;;11.50;8.00;;;25.82;100504.23;;;;117023;1194;25436;-61
2022/09/30 01:02:36;;;;;;;;;13.75;9.25;;;25.82;100509.02;;;;117067;1194;24827;-60
2022/09/30 01:05:08;;;;;;;;;13.75;8.50;;;25.80;100515.45;;;;117011;1194;25631;-60
2022/09/30 01:07:36;;;;;;;;;11.33;7.67;;;25.80;100524.75;;;;117031;1193;25127;-61
2022/09/30 01:10:05;;;;;;;;;11.00;10.00;;;25.78;100527.13;;;;117026;1193;24739;-60
2022/09/30 01:12:34;;;;;;;;;9.00;7.67;;;25.76;100531.48;;;;117083;1193;25401;-59
2022/09/30 01:15:03;;;;;;;;;13.00;10.00;;;25.75;100536.15;;;;117049;1194;24979;-59
2022/09/30 01:17:45;;;;;;;;;6.50;6.50;;;25.73;100534.16;;;;117049;1194;25533;-60
2022/09/30 01:20:31;;;;;;;;;12.75;9.50;;;25.74;100531.43;;;;117132;1192;24817;-60
2022/09/30 01:23:08;;;;;;;;;7.00;7.00;;;25.76;100531.63;;;;116926;1193;25370;-60
2022/09/30 01:26:13;;;;;;;;;14.33;9.67;;;25.75;100533.41;;;;117098;1191;25363;-59
2022/09/30 01:29:05;;;;;;;;;10.00;9.00;;;25.81;100537.06;;;;116897;1193;25190;-61
2022/09/30 01:32:11;;;;;;;;;8.67;7.00;;;25.84;100536.23;;;;117019;1191;25219;-61
2022/09/30 01:35:00;;;;;;;;;12.50;11.00;;;25.87;100538.92;;;;117050;1194;25470;-61
2022/09/30 01:37:48;;;;;;;;;11.75;8.75;;;25.84;100538.66;;;;117065;1192;25032;-61
2022/09/30 01:40:24;;;;;;;;;12.00;10.00;;;25.81;100538.80;;;;116925;1193;25397;-67
2022/09/30 01:43:16;;;;;;;;;14.25;9.50;;;25.79;100542.04;;;;116984;1193;25165;-69
2022/09/30 01:45:51;;;;;;;;;10.00;9.67;;;25.77;100539.64;;;;117050;1193;24852;-66
2022/09/30 01:48:39;;;;;;;;;16.00;10.00;;;25.74;100537.55;;;;117045;1193;25242;-69
2022/09/30 01:51:26;;;;;;;;;8.50;7.50;;;25.76;100539.62;;;;117031;1193;25081;-66
2022/09/30 01:54:02;;;;;;;;;9.00;7.25;;;25.76;100543.63;;;;117033;1194;25347;-60
2022/09/30 01:56:42;;;;;;;;;8.25;7.75;;;25.74;100547.61;;;;117062;1192;25691;-61
2022/09/30 01:59:16;;;;;;;;;7.50;7.00;;;25.74;100551.46;;;;117067;1193;24852;-60
2022/09/30 02:01:52;;;;;;;;;8.25;7.50;;;25.72;100554.68;;;;117080;1193;25467;-60
2022/09/30 02:04:29;;;;;;;;;8.00;7.33;;;25.75;100559.26;;;;117114;1191;25055;-60
2022/09/30 02:07:02;;;;;;;;;10.50;8.00;;;25.74;100559.59;;;;117140;1192;25596;-61
2022/09/30 02:09:40;;;;;;;;;9.33;9.33;;;25.72;100564.14;;;;117065;1192;25769;-60
2022/09/30 02:12:12;;;;;;;;;10.75;8.75;;;25.74;100573.86;;;;117135;1193;24866;-60
2022/09/30 02:14:48;;;;;;;;;8.50;7.50;;;25.73;100576.18;;;;117100;1193;25222;-60
2022/09/30 02:17:22;;;;;;;;;8.75;8.25;;;25.74;100582.35;;;;117050;1193;25431;-60
2022/09/30 02:20:08;;;;;;;;;12.00;7.75;;;25.73;100578.86;;;;117126;1193;24944;-60
2022/09/30 02:22:49;;;;;;;;;11.75;9.25;;;25.75;100584.36;;;;117127;1193;25270;-60
2022/09/30 02:25:22;;;;;;;;;11.50;9.25;;;25.77;100586.59;;;;117079;1192;25707;-60
2022/09/30 02:27:56;;;;;;;;;10.67;9.00;;;25.73;100583.36;;;;117163;1193;24946;-60
2022/09/30 02:30:25;;;;;;;;;9.25;6.75;;;25.72;100585.80;;;;117053;1193;25202;-60
2022/09/30 02:32:59;;;;;;;;;11.00;9.00;;;25.70;100586.94;;;;117066;1193;24878;-61
2022/09/30 02:35:33;;;;;;;;;8.25;6.50;;;25.70;100588.69;;;;117085;1193;25897;-60
2022/09/30 02:38:07;;;;;;;;;8.00;6.75;;;25.69;100596.76;;;;117080;1193;25229;-61
2022/09/30 02:40:49;;;;;;;;;5.25;5.25;;;25.69;100595.71;;;;117038;1193;25641;-60
2022/09/30 02:43:19;;;;;;;;;6.25;6.25;;;25.69;100594.73;;;;117080;1193;25604;-61
2022/09/30 02:45:54;;;;;;;;;9.67;7.67;;;25.68;100597.63;;;;117040;1193;25694;-60
2022/09/30 02:48:30;;;;;;;;;9.25;8.50;;;25.65;100595.94;;;;117115;1192;25461;-60
2022/09/30 02:51:22;;;;;;;;;8.00;8.00;;;25.62;100600.00;;;;117043;1193;25662;-60
2022/09/30 02:53:51;;;;;;;;;7.25;6.75;;;25.67;100602.53;;;;117065;1193;25333;-60
2022/09/30 02:56:39;;;;;;;;;9.00;8.50;;;25.66;100599.17;;;;117065;1193;25632;-60
2022/09/30 02:59:08;;;;;;;;;6.00;6.00;;;25.66;100600.89;;;;117065;1193;25546;-60
2022/09/30 03:01:40;;;;;;;;;8.00;6.00;;;25.63;100602.93;;;;117069;1193;24831;-60
2022/09/30 03:04:13;;;;;;;;;6.00;5.00;;;25.63;100594.63;;;;117048;1193;25233;-60
2022/09/30 03:06:41;;;;;;;;;7.00;4.67;;;25.60;100590.30;;;;117100;1193;24821;-60
2022/09/30 03:09:09;;;;;;;;;11.50;8.50;;;25.60;100588.79;;;;117070;1194;24759;-60
2022/09/30 03:11:39;;;;;;;;;10.67;7.67;;;25.59;100583.45;;;;117037;1193;25014;-61
2022/09/30 03:14:45;;;;;;;;;6.50;6.00;;;25.56;100584.89;;;;117009;1193;25646;-61
2022/09/30 03:17:40;;;;;;;;;7.00;7.00;;;25.58;100583.68;;;;117046;1193;25669;-61
2022/09/30 03:20:24;;;;;;;;;8.75;7.50;;;25.58;100581.76;;;;117016;1193;25129;-60
2022/09/30 03:23:04;;;;;;;;;7.67;7.33;;;25.62;100586.48;;;;117130;1192;24827;-61
2022/09/30 03:26:01;;;;;;;;;10.00;8.50;;;25.62;100592.88;;;;117173;1192;25216;-60
2022/09/30 03:28:34;;;;;;;;;7.25;7.25;;;25.62;100599.13;;;;116988;1193;24908;-60
2022/09/30 03:31:19;;;;;;;;;8.00;7.00;;;25.63;100605.19;;;;117055;1193;24721;-61
2022/09/30 03:33:55;;;;;;;;;12.25;9.50;;;25.64;100617.10;;;;117018;1193;25620;-60
2022/09/30 03:36:27;;;;;;;;;6.75;6.50;;;25.60;100625.16;;;;117072;1193;25603;-61
2022/09/30 03:39:24;;;;;;;;;7.33;7.00;;;25.59;100630.30;;;;117059;1193;25501;-61
2022/09/30 03:41:57;;;;;;;;;8.67;7.67;;;25.63;100635.86;;;;117099;1193;25097;-60
2022/09/30 03:44:40;;;;;;;;;7.25;6.75;;;25.64;100637.36;;;;117051;1193;25005;-60
2022/09/30 03:47:11;;;;;;;;;12.25;7.25;;;25.68;100645.62;;;;117070;1193;25103;-61
2022/09/30 03:49:49;;;;;;;;;11.50;9.50;;;25.66;100645.55;;;;117128;1193;24883;-60
2022/09/30 03:52:18;;;;;;;;;8.75;7.00;;;25.62;100642.34;;;;117051;1193;25040;-60
2022/09/30 03:54:56;;;;;;;;;8.25;7.25;;;25.59;100644.23;;;;117041;1192;24801;-60
2022/09/30 03:57:29;;;;;;;;;10.00;10.00;;;25.58;100644.70;;;;117023;1194;24887;-63
2022/09/30 03:59:58;;;;;;;;;8.75;6.50;;;25.59;100650.73;;;;117007;1193;25734;-60
2022/09/30 04:02:28;;;;;;;;;8.33;8.00;;;25.54;100649.13;;;;117073;1193;25610;-60
2022/09/30 04:04:57;;;;;;;;;9.00;9.00;;;25.53;100653.67;;;;117141;1193;25467;-60
2022/09/30 04:07:26;;;;;;;;;10.00;9.33;;;25.53;100655.98;;;;117121;1193;24776;-59
2022/09/30 04:09:55;;;;;;;;;11.50;10.50;;;25.51;100661.77;;;;117011;1194;25669;-59
2022/09/30 04:12:23;;;;;;;;;11.75;8.50;;;25.51;100670.43;;;;117053;1194;25668;-60
2022/09/30 04:14:52;;;;;;;;;10.67;9.00;;;25.50;100677.17;;;;117056;1193;25507;-59
2022/09/30 04:17:20;;;;;;;;;11.25;7.75;;;25.51;100679.77;;;;117047;1194;24986;-59
2022/09/30 04:19:49;;;;;;;;;12.25;9.50;;;25.50;100679.59;;;;117035;1193;25633;-59
2022/09/30 04:22:17;;;;;;;;;6.50;5.50;;;25.50;100677.73;;;;117046;1194;25083;-59
2022/09/30 04:24:49;;;;;;;;;10.75;9.25;;;25.48;100682.06;;;;116961;1193;25522;-59
2022/09/30 04:27:18;;;;;;;;;10.25;7.50;;;25.46;100688.84;;;;117038;1193;25687;-59
2022/09/30 04:29:46;;;;;;;;;9.00;9.00;;;25.47;100688.47;;;;117061;1193;25286;-59
2022/09/30 04:32:14;;;;;;;;;14.50;10.50;;;25.45;100692.44;;;;117036;1193;24845;-59
2022/09/30 04:34:43;;;;;;;;;13.50;11.75;;;25.43;100696.67;;;;117029;1194;25180;-60
2022/09/30 04:37:12;;;;;;;;;6.33;6.33;;;25.43;100700.69;;;;117055;1193;24887;-58
2022/09/30 04:39:40;;;;;;;;;13.00;10.75;;;25.46;100692.70;;;;117074;1193;25165;-58
2022/09/30 04:42:10;;;;;;;;;9.00;7.00;;;25.47;100695.73;;;;117012;1192;25742;-57
2022/09/30 04:44:38;;;;;;;;;7.50;7.25;;;25.47;100701.06;;;;117075;1193;25024;-57
2022/09/30 04:47:07;;;;;;;;;11.00;6.25;;;25.50;100706.86;;;;117008;1194;24824;-58
2022/09/30 04:49:35;;;;;;;;;13.75;9.00;;;25.51;100709.23;;;;117057;1193;24796;-56
2022/09/30 04:52:04;;;;;;;;;11.25;9.00;;;25.52;100709.91;;;;117070;1193;24967;-57
2022/09/30 04:54:32;;;;;;;;;9.00;7.00;;;25.53;100720.02;;;;117069;1193;25760;-57
2022/09/30 04:57:00;;;;;;;;;10.75;7.75;;;25.55;100716.33;;;;117017;1193;25423;-57
2022/09/30 04:59:29;;;;;;;;;7.67;7.00;;;25.54;100714.33;;;;116939;1193;24777;-57
2022/09/30 05:01:57;;;;;;;;;10.33;9.00;;;25.56;100717.16;;;;116889;1193;25117;-57
2022/09/30 05:04:26;;;;;;;;;8.00;8.00;;;25.57;100720.89;;;;117027;1193;24911;-58
2022/09/30 05:06:54;;;;;;;;;12.50;11.50;;;25.57;100722.60;;;;117071;1193;25289;-57
2022/09/30 05:09:23;;;;;;;;;12.25;8.75;;;25.55;100724.64;;;;117014;1193;25684;-58
2022/09/30 05:11:52;;;;;;;;;10.50;9.50;;;25.56;100728.06;;;;117041;1192;25205;-57
2022/09/30 05:14:21;;;;;;;;;14.00;10.75;;;25.55;100734.69;;;;116860;1193;25028;-57
2022/09/30 05:16:49;;;;;;;;;12.67;9.33;;;25.54;100742.91;;;;117016;1193;24985;-57
2022/09/30 05:19:17;;;;;;;;;10.25;9.00;;;25.55;100742.95;;;;116971;1193;24766;-61
2022/09/30 05:21:46;;;;;;;;;13.50;10.50;;;25.61;100744.60;;;;117015;1193;25126;-64
2022/09/30 05:24:14;;;;;;;;;13.75;10.75;;;25.60;100750.52;;;;117048;1193;25270;-63
2022/09/30 05:26:43;;;;;;;;;11.75;10.00;;;25.59;100754.94;;;;117079;1193;25233;-63
2022/09/30 05:29:12;;;;;;;;;12.67;9.33;;;25.62;100754.59;;;;117079;1192;25170;-63
2022/09/30 05:31:41;;;;;;;;;13.00;9.50;;;25.61;100758.56;;;;117073;1193;25665;-64
2022/09/30 05:34:09;;;;;;;;;15.00;10.25;;;25.65;100760.47;;;;117129;1193;25363;-62
2022/09/30 05:36:38;;;;;;;;;12.50;9.00;;;25.63;100768.90;;;;116883;1193;25228;-62
2022/09/30 05:39:06;;;;;;;;;9.00;9.00;;;25.69;100774.60;;;;117060;1193;25646;-62
2022/09/30 05:41:34;;;;;;;;;10.75;10.00;;;25.70;100779.06;;;;117086;1193;25465;-65
2022/09/30 05:44:03;;;;;;;;;16.25;14.75;;;25.78;100784.04;;;;117067;1193;24865;-65
2022/09/30 05:46:31;;;;;;;;;13.00;10.00;;;25.82;100780.51;;;;116985;1193;25105;-65
2022/09/30 05:49:00;;;;;;;;;14.25;10.75;;;25.86;100785.65;;;;117058;1191;25071;-65
2022/09/30 05:51:28;;;;;;;;;14.00;10.00;;;25.91;100788.85;;;;117024;1193;25500;-65
2022/09/30 05:53:56;;;;;;;;;8.25;6.00;;;25.91;100789.73;;;;116953;1193;25184;-66
2022/09/30 05:56:25;;;;;;;;;9.75;8.25;;;25.94;100786.86;;;;117035;1193;26011;-65
2022/09/30 05:58:53;;;;;;;;;14.50;12.25;;;25.94;100784.84;;;;117068;1192;25020;-65
2022/09/30 06:01:22;;;;;;;;;12.50;8.50;;;25.94;100783.44;;;;117002;1193;25165;-66
2022/09/30 06:03:50;;;;;;;;;12.50;11.25;;;25.93;100785.13;;;;117019;1193;25038;-65
2022/09/30 06:06:20;;;;;;;;;13.50;9.00;;;25.94;100786.35;;;;117027;1193;25008;-64
2022/09/30 06:08:48;;;;;;;;;14.75;10.75;;;25.96;100789.04;;;;117039;1193;25683;-65
2022/09/30 06:11:19;;;;;;;;;11.67;9.67;;;25.97;100787.98;;;;116993;1193;24876;-65
2022/09/30 06:13:48;;;;;;;;;11.00;11.00;;;26.00;100788.80;;;;117024;1191;25679;-65
2022/09/30 06:16:17;;;;;;;;;12.00;9.33;;;26.04;100790.17;;;;117024;1193;25558;-64
2022/09/30 06:18:46;;;;;;;;;10.25;10.25;;;26.07;100788.30;;;;117109;1193;24750;-65
2022/09/30 06:21:16;;;;;;;;;11.00;11.00;;;26.07;100791.90;;;;117107;1193;25416;-64
2022/09/30 06:23:45;;;;;;;;;12.00;10.50;;;26.06;100793.11;;;;117056;1193;24834;-64
2022/09/30 06:26:14;;;;;;;;;12.00;10.67;;;26.07;100797.01;;;;117046;1193;25047;-64
2022/09/30 06:28:43;;;;;;;;;11.67;11.33;;;26.14;100795.21;;;;117136;1193;25482;-65
2022/09/30 06:31:12;;;;;;;;;12.00;11.25;;;26.17;100793.66;;;;117114;1192;25520;-66
2022/09/30 06:33:42;;;;;;;;;16.25;12.50;;;26.20;100795.90;;;;117032;1193;25511;-65
2022/09/30 06:36:10;;;;;;;;;12.25;9.25;;;26.23;100797.71;;;;117010;1193;25531;-62
2022/09/30 06:38:39;;;;;;;;;15.33;11.33;;;26.21;100804.95;;;;117106;1192;25535;-60
2022/09/30 06:41:07;;;;;;;;;11.50;11.00;;;26.18;100809.15;;;;117032;1193;25660;-63
2022/09/30 06:43:36;;;;;;;;;12.00;9.75;;;26.24;100809.21;;;;117021;1193;24793;-65
2022/09/30 06:46:22;;;;;;;;;13.00;11.33;;;26.32;100811.35;;;;117036;1193;25001;-64
2022/09/30 06:48:58;;;;;;;;;12.00;12.00;;;26.37;100815.30;;;;117009;1193;25284;-61
2022/09/30 06:51:40;;;;;;;;;15.25;11.00;;;26.43;100815.61;;;;116942;1192;25448;-62
2022/09/30 06:54:09;;;;;;;;;12.50;12.50;;;26.39;100818.80;;;;117046;1193;24789;-61
2022/09/30 06:56:38;;;;;;;;;11.67;8.67;;;26.39;100819.01;;;;117044;1193;25647;-60
2022/09/30 06:59:06;;;;;;;;;11.00;9.33;;;26.40;100822.23;;;;117069;1193;25481;-62
2022/09/30 07:01:35;;;;;;;;;10.25;9.75;;;26.43;100829.55;;;;117021;1193;25413;-61
2022/09/30 07:04:08;;;;;;;;;9.00;7.33;;;26.48;100830.52;;;;116788;1194;24783;-66
2022/09/30 07:06:37;;;;;;;;;12.50;10.50;;;26.52;100832.70;;;;117033;1193;25122;-65
2022/09/30 07:09:06;;;;;;;;;13.00;11.25;;;26.56;100834.24;;;;117063;1193;25240;-66
2022/09/30 07:11:36;;;;;;;;;10.00;9.33;;;26.59;100837.96;;;;117055;1193;25592;-65
2022/09/30 07:14:05;;;;;;;;;9.00;9.00;;;26.63;100842.48;;;;117062;1193;25018;-62
2022/09/30 07:16:34;;;;;;;;;10.33;9.00;;;26.60;100842.67;;;;117022;1193;25576;-58
2022/09/30 07:19:05;;;;;;;;;9.33;7.00;;;26.62;100845.35;;;;116999;1193;24923;-59
2022/09/30 07:21:34;;;;;;;;;13.75;9.25;;;26.64;100845.85;;;;117056;1193;25719;-59
2022/09/30 07:24:02;;;;;;;;;12.25;11.75;;;26.66;100847.21;;;;116964;1193;25177;-60
2022/09/30 07:26:31;;;;;;;;;13.50;10.00;;;26.68;100851.70;;;;117049;1193;25387;-59
2022/09/30 07:29:00;;;;;;;;;10.33;10.33;;;26.68;100854.00;;;;117155;1193;25647;-60
2022/09/30 07:31:28;;;;;;;;;13.67;12.00;;;26.69;100853.27;;;;117133;1191;26389;-61
2022/09/30 07:34:05;;;;;;;;;10.50;10.00;;;26.70;100848.85;;;;117000;1193;25078;-59
2022/09/30 07:36:39;;;;;;;;;15.00;11.67;;;26.75;100849.48;;;;117048;1193;25150;-60
2022/09/30 07:39:09;;;;;;;;;11.50;10.25;;;26.82;100852.54;;;;116998;1193;25493;-59
2022/09/30 07:41:39;;;;;;;;;12.00;9.00;;;26.87;100857.80;;;;116994;1193;25784;-60
2022/09/30 07:44:13;;;;;;;;;13.00;9.00;;;26.87;100856.77;;;;117046;1193;25489;-60
2022/09/30 07:46:43;;;;;;;;;10.25;10.25;;;26.92;100854.71;;;;117106;1193;25481;-59
2022/09/30 07:49:14;;;;;;;;;8.00;8.00;;;26.99;100854.30;;;;117059;1193;25533;-59
2022/09/30 07:51:44;;;;;;;;;7.00;7.00;;;26.97;100857.61;;;;117102;1192;25273;-59
2022/09/30 07:54:16;;;;;;;;;9.75;9.75;;;27.01;100855.52;;;;117043;1193;25808;-59
2022/09/30 07:56:45;;;;;;;;;8.67;8.67;;;27.05;100853.95;;;;117006;1193;25358;-59
2022/09/30 07:59:37;;;;;;;;;12.00;10.25;;;27.06;100854.74;;;;117034;1193;25117;-59
2022/09/30 08:02:07;;;;;;;;;12.25;9.25;;;27.07;100855.81;;;;117022;1193;25055;-59
2022/09/30 08:04:35;;;;;;;;;11.00;8.00;;;27.08;100861.80;;;;117005;1193;25345;-59
2022/09/30 08:07:11;;;;;;;;;8.33;8.33;;;27.11;100863.73;;;;116871;1193;24953;-59
2022/09/30 08:09:39;;;;;;;;;10.00;8.25;;;27.09;100866.45;;;;117075;1192;25609;-59
2022/09/30 08:12:08;;;;;;;;;10.75;9.75;;;27.07;100871.34;;;;117013;1194;24703;-59
2022/09/30 08:14:36;;;;;;;;;13.25;11.75;;;27.10;100875.71;;;;117094;1193;25389;-59
2022/09/30 08:17:05;;;;;;;;;12.33;8.00;;;27.13;100878.84;;;;116998;1192;24957;-59
2022/09/30 08:19:34;;;;;;;;;8.67;8.67;;;27.10;100885.91;;;;116986;1193;25112;-62
2022/09/30 08:22:02;;;;;;;;;10.33;6.33;;;27.10;100885.25;;;;116968;1193;25450;-61
2022/09/30 08:24:31;;;;;;;;;12.33;8.67;;;27.13;100883.23;;;;117034;1193;24700;-61
2022/09/30 08:27:00;;;;;;;;;13.00;9.75;;;27.13;100890.60;;;;116874;1193;25225;-61
2022/09/30 08:29:28;;;;;;;;;9.00;8.00;;;27.06;100889.27;;;;117046;1193;24724;-61
2022/09/30 08:32:16;;;;;;;;;10.50;8.75;;;27.10;100890.95;;;;117002;1193;25069;-62
2022/09/30 08:34:45;;;;;;;;;8.00;7.00;;;27.16;100890.17;;;;116904;1193;24972;-62
2022/09/30 08:37:14;;;;;;;;;9.00;8.75;;;27.20;100879.16;;;;117047;1193;24907;-62
2022/09/30 08:39:42;;;;;;;;;11.00;10.00;;;27.22;100874.66;;;;116988;1192;25529;-59
2022/09/30 08:42:10;;;;;;;;;7.50;7.50;;;27.24;100876.08;;;;116964;1192;24781;-58
2022/09/30 08:45:12;;;;;;;;;7.25;7.25;;;27.28;100876.45;;;;117035;1191;25482;-59
2022/09/30 08:47:51;;;;;;;;;9.67;8.33;;;27.33;100871.77;;;;116986;1194;25131;-60
2022/09/30 08:50:41;;;;;;;;;11.25;10.50;;;27.33;100874.42;;;;117079;1193;25587;-60
2022/09/30 08:53:17;;;;;;;;;9.75;7.25;;;27.35;100878.60;;;;116959;1193;25348;-59
2022/09/30 08:55:46;;;;;;;;;10.25;8.50;;;27.35;100879.17;;;;117074;1194;24743;-61
2022/09/30 08:58:51;;;;;;;;;12.33;8.33;;;27.34;100878.14;;;;117131;1193;25037;-59
2022/09/30 09:01:32;;;;;;;;;11.00;8.50;;;27.44;100880.66;;;;117005;1192;25295;-59
2022/09/30 09:04:02;;;;;;;;;11.00;9.00;;;27.45;100885.87;;;;117064;1193;25489;-59
2022/09/30 09:07:04;;;;;;;;;12.67;7.33;;;27.40;100885.22;;;;117122;1192;25686;-60
2022/09/30 09:09:44;;;;;;;;;8.00;7.50;;;27.46;100878.42;;;;117030;1193;25044;-60
2022/09/30 09:12:36;;;;;;;;;10.25;9.00;;;27.45;100877.83;;;;117050;1193;25084;-62
2022/09/30 09:15:08;;;;;;;;;10.25;9.00;;;27.42;100873.62;;;;117107;1193;25254;-62
2022/09/30 09:17:54;;;;;;;;;10.00;7.00;;;27.39;100878.54;;;;117150;1193;25369;-61
2022/09/30 09:21:10;;;;;;;;;10.67;9.00;;;27.48;100878.88;;;;117074;1193;24985;-59
2022/09/30 09:23:39;;;;;;;;;9.33;8.00;;;27.55;100885.41;;;;117103;1193;25175;-62
2022/09/30 09:26:11;;;;;;;;;10.25;8.50;;;27.53;100884.48;;;;117020;1193;24843;-62
2022/09/30 09:28:49;;;;;;;;;3.75;3.25;;;27.45;100881.05;;;;117042;1192;25035;-61
2022/09/30 09:31:21;;;;;;;;;8.50;7.00;;;27.43;100883.73;;;;117108;1191;25075;-60
2022/09/30 09:33:49;;;;;;;;;8.25;8.00;;;27.43;100881.70;;;;116973;1193;25744;-60
2022/09/30 09:36:42;;;;;;;;;9.00;8.00;;;27.43;100886.79;;;;117104;1193;25641;-61
2022/09/30 09:39:37;;;;;;;;;11.00;7.67;;;27.44;100880.94;;;;117009;1193;25322;-60
2022/09/30 09:42:24;;;;;;;;;6.00;4.00;;;27.43;100883.83;;;;117029;1193;25182;-60
2022/09/30 09:45:03;;;;;;;;;11.25;8.00;;;27.42;100888.98;;;;116972;1193;25786;-60
2022/09/30 09:47:32;;;;;;;;;11.50;7.75;;;27.40;100889.63;;;;117048;1193;25397;-66
2022/09/30 09:50:03;;;;;;;;;8.67;7.00;;;27.39;100887.87;;;;117025;1193;25224;-63
2022/09/30 09:52:59;;;;;;;;;5.25;5.25;;;27.41;100881.80;;;;117149;1193;24908;-64
2022/09/30 09:55:27;;;;;;;;;8.00;7.00;;;27.41;100873.59;;;;117156;1193;25624;-64
2022/09/30 09:58:09;;;;;;;;;8.67;8.00;;;27.41;100876.02;;;;117044;1191;25345;-63
2022/09/30 10:03:26;;;;;;;;;7.00;7.00;;;27.34;100867.95;;;;117076;1191;24789;-63
2022/09/30 10:06:03;;;;;;;;;12.00;7.25;;;27.34;100874.52;;;;117089;1192;24946;-63
2022/09/30 10:08:34;;;;;;;;;9.67;7.33;;;27.41;100874.16;;;;117099;1193;25237;-60
2022/09/30 10:11:16;;;;;;;;;12.75;7.25;;;27.45;100874.55;;;;117297;1193;25257;-62
2022/09/30 10:13:45;;;;;;;;;6.25;6.25;;;27.46;100877.66;;;;117129;1192;25019;-62
2022/09/30 10:16:36;;;;;;;;;7.25;6.25;;;27.44;100882.13;;;;117110;1193;25061;-62
2022/09/30 10:19:18;;;;;;;;;9.50;7.75;;;27.42;100886.11;;;;117124;1193;25681;-60
2022/09/30 10:21:47;;;;;;;;;13.67;7.00;;;27.52;100875.96;;;;117128;1193;25666;-61
2022/09/30 10:24:28;;;;;;;;;11.00;8.75;;;27.49;100872.67;;;;117067;1193;25650;-60
2022/09/30 10:26:56;;;;;;;;;6.75;4.50;;;27.46;100876.48;;;;117040;1192;25560;-60
2022/09/30 10:29:32;;;;;;;;;8.25;5.50;;;27.43;100872.74;;;;117046;1193;24813;-61
2022/09/30 10:32:03;;;;;;;;;8.50;7.75;;;27.36;100872.63;;;;116907;1193;25707;-62
2022/09/30 10:34:40;;;;;;;;;7.75;7.25;;;27.37;100870.16;;;;117074;1193;25212;-64
2022/09/30 10:37:21;;;;;;;;;6.33;6.33;;;27.36;100869.80;;;;117021;1193;25514;-66
2022/09/30 10:40:00;;;;;;;;;11.50;7.75;;;27.38;100865.95;;;;117052;1193;25465;-65
2022/09/30 10:42:31;;;;;;;;;7.75;4.75;;;27.35;100865.73;;;;117052;1193;25006;-66
2022/09/30 10:45:15;;;;;;;;;6.00;5.25;;;27.38;100863.92;;;;117261;1189;25645;-65
2022/09/30 10:47:46;;;;;;;;;6.50;5.50;;;27.48;100865.50;;;;117129;1192;25470;-68
2022/09/30 10:50:19;;;;;;;;;7.00;6.00;;;27.56;100868.77;;;;117063;1192;25286;-66
2022/09/30 10:53:14;;;;;;;;;7.50;6.75;;;27.51;100863.02;;;;116962;1193;25634;-66
2022/09/30 10:55:45;;;;;;;;;10.25;6.50;;;27.54;100861.42;;;;117106;1192;25357;-66
2022/09/30 10:58:48;;;;;;;;;7.50;6.50;;;27.52;100864.67;;;;117038;1193;25142;-66
2022/09/30 11:01:24;;;;;;;;;6.67;6.33;;;27.47;100861.83;;;;117074;1192;25129;-65
2022/09/30 11:04:18;;;;;;;;;5.00;5.00;;;27.48;100867.39;;;;117137;1191;24717;-66
2022/09/30 11:06:48;;;;;;;;;5.75;5.75;;;27.46;100867.94;;;;116961;1194;25270;-66
2022/09/30 11:09:32;;;;;;;;;6.75;6.75;;;27.45;100865.20;;;;117047;1193;24695;-66
2022/09/30 11:12:32;;;;;;;;;4.75;4.00;;;27.41;100864.70;;;;117133;1192;25583;-65
2022/09/30 11:15:11;;;;;;;;;7.00;6.25;;;27.56;100867.54;;;;117083;1193;25321;-66
2022/09/30 11:18:01;;;;;;;;;7.50;7.50;;;27.54;100864.25;;;;117116;1192;25577;-66
2022/09/30 11:20:53;;;;;;;;;7.33;4.00;;;27.55;100858.48;;;;117112;1193;24927;-66
2022/09/30 11:23:35;;;;;;;;;8.00;8.00;;;27.59;100863.21;;;;117105;1192;25065;-67
2022/09/30 11:26:19;;;;;;;;;8.50;6.75;;;27.55;100865.91;;;;117030;1193;25217;-66
2022/09/30 11:29:14;;;;;;;;;6.25;5.75;;;27.55;100860.27;;;;117008;1193;24928;-66
2022/09/30 11:31:56;;;;;;;;;10.50;6.75;;;27.48;100859.30;;;;117032;1193;25475;-64
2022/09/30 11:34:49;;;;;;;;;8.00;5.00;;;27.46;100860.34;;;;117024;1193;25667;-65
2022/09/30 11:37:26;;;;;;;;;8.50;5.00;;;27.42;100866.23;;;;117052;1192;24816;-63
2022/09/30 11:40:19;;;;;;;;;9.00;6.67;;;27.43;100856.23;;;;117007;1192;24942;-65
2022/09/30 11:42:54;;;;;;;;;7.33;5.67;;;27.41;100853.55;;;;117029;1194;25410;-65
2022/09/30 11:45:28;;;;;;;;;7.00;6.75;;;27.39;100855.30;;;;117063;1193;24956;-64
2022/09/30 11:48:06;;;;;;;;;5.25;4.75;;;27.36;100858.73;;;;117044;1193;25261;-65
2022/09/30 11:50:46;;;;;;;;;5.33;5.33;;;27.33;100860.09;;;;116995;1192;25025;-66
2022/09/30 11:53:14;;;;;;;;;5.25;5.25;;;27.35;100862.58;;;;117104;1191;25225;-64
2022/09/30 11:56:02;;;;;;;;;8.50;7.25;;;27.31;100856.04;;;;117053;1192;25355;-65
2022/09/30 11:58:39;;;;;;;;;11.67;4.00;;;27.28;100857.77;;;;117033;1192;25814;-65
2022/09/30 12:01:25;;;;;;;;;5.00;5.00;;;27.27;100854.57;;;;117033;1194;25154;-65
2022/09/30 12:03:58;;;;;;;;;6.00;4.75;;;27.33;100854.06;;;;117087;1193;25188;-65
2022/09/30 12:06:41;;;;;;;;;5.00;5.00;;;27.36;100849.30;;;;117034;1193;24963;-65
2022/09/30 12:09:23;;;;;;;;;6.50;6.50;;;27.29;100854.44;;;;117096;1193;24879;-64
2022/09/30 12:12:11;;;;;;;;;5.33;5.33;;;27.39;100854.61;;;;117123;1193;25643;-64
2022/09/30 12:15:10;;;;;;;;;6.25;6.25;;;27.45;100847.52;;;;117056;1192;25450;-63
2022/09/30 12:17:44;;;;;;;;;5.50;5.50;;;27.51;100838.31;;;;117102;1193;24983;-63
2022/09/30 12:20:27;;;;;;;;;6.00;4.33;;;27.48;100833.27;;;;117047;1193;24972;-68
2022/09/30 12:23:17;;;;;;;;;7.75;5.50;;;27.35;100838.33;;;;117037;1193;24731;-68
2022/09/30 12:26:05;;;;;;;;;7.00;5.25;;;27.35;100834.50;;;;117004;1192;24707;-67
2022/09/30 12:31:57;;;;;;;;;8.75;8.00;;;27.45;100848.14;;;;117110;1193;25277;-65
2022/09/30 12:34:47;;;;;;;;;5.67;5.67;;;27.52;100845.52;;;;117109;1193;25658;-63
2022/09/30 12:37:47;;;;;;;;;9.25;6.25;;;27.49;100837.97;;;;117186;1191;24806;-60
2022/09/30 12:40:42;;;;;;;;;7.75;6.75;;;27.30;100848.18;;;;117092;1193;24968;-60